createdAt,value
2018-07-12T00:02:15.078Z,72.10
2018-07-12T00:04:42.298Z,72.10
2018-07-12T00:07:09.480Z,72.20
2018-07-12T00:09:36.700Z,72.00
2018-07-12T00:12:03.935Z,71.90
2018-07-12T00:14:31.161Z,72.10
2018-07-12T00:16:58.385Z,72.10
2018-07-12T00:19:25.592Z,72.20
2018-07-12T00:21:52.828Z,72.20
2018-07-12T00:24:20.083Z,72.60
2018-07-12T00:26:47.427Z,72.30
2018-07-12T00:29:14.627Z,72.60
2018-07-12T00:31:41.856Z,72.70
2018-07-12T00:34:09.072Z,72.60
2018-07-12T00:36:36.316Z,72.50
2018-07-12T00:39:04.374Z,72.40
2018-07-12T00:41:31.640Z,72.20
2018-07-12T00:43:58.848Z,72.10
2018-07-12T00:46:26.064Z,72.10
2018-07-12T00:48:53.288Z,72.00
2018-07-12T00:51:20.550Z,71.80
2018-07-12T00:53:47.731Z,71.60
2018-07-12T00:56:14.944Z,71.70
2018-07-12T00:58:42.172Z,71.80
2018-07-12T01:01:09.411Z,71.70
2018-07-12T01:03:36.640Z,71.50
2018-07-12T01:06:03.847Z,71.50
2018-07-12T01:08:31.065Z,71.50
2018-07-12T01:13:31.948Z,71.50
2018-07-12T01:15:59.145Z,71.50
2018-07-12T01:18:26.378Z,71.40
2018-07-12T01:20:53.552Z,71.30
2018-07-12T01:23:20.755Z,71.20
2018-07-12T01:25:47.962Z,71.20
2018-07-12T01:28:15.161Z,71.20
2018-07-12T01:30:42.337Z,71.30
2018-07-12T01:33:09.610Z,71.40
2018-07-12T01:35:36.868Z,71.60
2018-07-12T01:38:04.081Z,72.00
2018-07-12T01:40:31.308Z,71.30
2018-07-12T01:42:58.508Z,72.00
2018-07-12T01:45:26.490Z,71.90
2018-07-12T01:47:53.732Z,71.80
2018-07-12T01:50:20.919Z,71.80
2018-07-12T01:52:48.137Z,71.70
2018-07-12T01:55:15.347Z,71.70
2018-07-12T01:57:42.567Z,71.70
2018-07-12T02:00:09.760Z,71.70
2018-07-12T02:02:36.984Z,71.70
2018-07-12T02:05:04.260Z,71.60
2018-07-12T02:07:31.474Z,71.40
2018-07-12T02:09:58.755Z,71.30
2018-07-12T02:12:25.948Z,71.20
2018-07-12T02:14:53.160Z,71.10
2018-07-12T02:17:20.365Z,70.80
2018-07-12T02:19:47.576Z,70.50
2018-07-12T02:22:21.265Z,70.30
2018-07-12T02:24:48.518Z,70.00
2018-07-12T02:27:16.612Z,69.90
2018-07-12T02:29:43.829Z,69.70
2018-07-12T02:32:11.115Z,69.50
2018-07-12T02:34:38.360Z,69.40
2018-07-12T02:37:05.592Z,69.30
2018-07-12T02:39:32.807Z,69.30
2018-07-12T02:42:00.015Z,69.20
2018-07-12T02:44:27.370Z,69.10
2018-07-12T02:46:54.547Z,69.10
2018-07-12T02:49:21.765Z,69.10
2018-07-12T02:51:49.022Z,69.10
2018-07-12T02:54:16.248Z,69.10
2018-07-12T02:56:43.437Z,69.20
2018-07-12T02:59:10.641Z,69.30
2018-07-12T03:01:37.854Z,69.50
2018-07-12T03:04:05.084Z,69.60
2018-07-12T03:06:32.276Z,69.60
2018-07-12T03:08:59.585Z,69.60
2018-07-12T03:11:26.804Z,69.70
2018-07-12T03:13:53.997Z,69.80
2018-07-12T03:16:21.252Z,70.00
2018-07-12T03:18:48.473Z,70.00
2018-07-12T03:21:15.676Z,70.00
2018-07-12T03:23:42.947Z,70.10
2018-07-12T03:26:10.167Z,70.10
2018-07-12T03:28:37.369Z,70.20
2018-07-12T03:31:04.667Z,70.30
2018-07-12T03:33:31.933Z,70.40
2018-07-12T03:35:59.156Z,70.70
2018-07-12T03:38:26.468Z,70.90
2018-07-12T03:43:21.164Z,71.20
2018-07-12T03:45:48.352Z,71.30
2018-07-12T03:48:15.576Z,71.30
2018-07-12T03:50:42.792Z,71.30
2018-07-12T03:53:10.016Z,71.30
2018-07-12T03:55:37.238Z,71.30
2018-07-12T03:58:04.617Z,71.20
2018-07-12T04:00:31.749Z,71.20
2018-07-12T04:02:58.984Z,71.20
2018-07-12T04:05:26.188Z,71.30
2018-07-12T04:07:53.563Z,71.30
2018-07-12T04:10:20.741Z,71.20
2018-07-12T04:12:47.940Z,71.20
2018-07-12T04:15:15.140Z,71.20
2018-07-12T04:17:42.413Z,71.10
2018-07-12T04:20:09.657Z,71.10
2018-07-12T04:22:37.192Z,71.10
2018-07-12T04:25:04.404Z,71.00
2018-07-12T04:27:31.616Z,70.90
2018-07-12T04:29:59.703Z,70.80
2018-07-12T04:32:27.017Z,70.80
2018-07-12T04:34:54.391Z,70.90
2018-07-12T04:37:21.752Z,70.80
2018-07-12T04:39:48.951Z,70.70
2018-07-12T04:42:16.161Z,70.60
2018-07-12T04:44:43.361Z,70.50
2018-07-12T04:47:10.631Z,70.50
2018-07-12T04:49:37.844Z,70.60
2018-07-12T04:52:05.025Z,70.50
2018-07-12T04:54:32.242Z,70.50
2018-07-12T04:56:59.468Z,70.40
2018-07-12T04:59:26.694Z,70.20
2018-07-12T05:01:53.897Z,70.10
2018-07-12T05:04:21.087Z,70.10
2018-07-12T05:06:48.320Z,69.90
2018-07-12T05:09:15.520Z,69.70
2018-07-12T05:11:42.763Z,69.40
2018-07-12T05:14:10.040Z,69.30
2018-07-12T05:16:37.264Z,69.10
2018-07-12T05:19:04.472Z,68.80
2018-07-12T05:21:31.681Z,68.80
2018-07-12T05:23:58.880Z,68.80
2018-07-12T05:26:26.064Z,69.00
2018-07-12T05:28:53.307Z,69.10
2018-07-12T05:31:20.489Z,69.90
2018-07-12T05:33:47.692Z,69.50
2018-07-12T05:36:36.889Z,69.60
2018-07-12T05:39:05.288Z,69.90
2018-07-12T05:41:33.485Z,70.60
2018-07-12T05:44:01.703Z,71.00
2018-07-12T05:46:29.947Z,71.60
2018-07-12T05:48:58.262Z,71.70
2018-07-12T05:51:26.525Z,71.90
2018-07-12T05:53:54.768Z,71.90
2018-07-12T05:56:23.128Z,72.00
2018-07-12T05:58:51.764Z,72.10
2018-07-12T06:01:31.488Z,72.20
2018-07-12T06:03:59.722Z,72.20
2018-07-12T06:06:27.960Z,72.20
2018-07-12T06:08:56.224Z,72.30
2018-07-12T06:11:24.417Z,72.30
2018-07-12T06:13:52.644Z,72.30
2018-07-12T06:16:20.947Z,72.30
2018-07-12T06:18:49.187Z,72.40
2018-07-12T06:21:17.439Z,72.60
2018-07-12T06:23:45.626Z,72.60
2018-07-12T06:26:14.000Z,72.80
2018-07-12T06:28:42.211Z,73.00
2018-07-12T06:31:10.442Z,73.10
2018-07-12T06:33:38.744Z,73.60
2018-07-12T06:36:06.959Z,75.10
2018-07-12T06:38:35.224Z,76.80
2018-07-12T06:41:03.480Z,77.90
2018-07-12T06:43:31.819Z,78.60
2018-07-12T06:46:00.051Z,79.50
2018-07-12T06:48:28.316Z,80.00
2018-07-12T06:50:56.548Z,80.40
2018-07-12T06:53:24.900Z,80.70
2018-07-12T06:55:53.727Z,81.70
2018-07-12T06:58:21.936Z,81.60
2018-07-12T07:00:50.167Z,82.40
2018-07-12T07:03:18.384Z,82.70
2018-07-12T07:05:47.343Z,84.20
2018-07-12T07:08:15.973Z,84.20
2018-07-12T07:10:44.228Z,85.10
2018-07-12T07:13:12.467Z,85.60
2018-07-12T07:15:40.744Z,86.00
2018-07-12T07:18:08.952Z,86.40
2018-07-12T07:20:37.194Z,86.70
2018-07-12T07:23:05.409Z,87.10
2018-07-12T07:25:33.668Z,87.30
2018-07-12T07:28:01.869Z,87.50
2018-07-12T07:30:30.104Z,87.50
2018-07-12T07:32:58.340Z,87.60
2018-07-12T07:35:26.605Z,87.40
2018-07-12T07:37:54.827Z,87.10
2018-07-12T07:40:23.046Z,86.70
2018-07-12T07:42:51.369Z,85.90
2018-07-12T07:45:19.609Z,84.70
2018-07-12T07:47:47.837Z,83.60
2018-07-12T07:50:16.052Z,82.50
2018-07-12T07:52:44.280Z,81.10
2018-07-12T07:55:12.520Z,80.20
2018-07-12T07:57:40.728Z,79.50
2018-07-12T08:00:09.060Z,79.00
2018-07-12T08:02:37.280Z,79.50
2018-07-12T08:05:05.549Z,78.00
2018-07-12T08:07:33.794Z,77.90
2018-07-12T08:10:02.068Z,78.10
2018-07-12T08:12:30.276Z,78.30
2018-07-12T08:14:58.512Z,78.40
2018-07-12T08:17:26.745Z,78.50
2018-07-12T08:19:54.958Z,78.70
2018-07-12T08:22:23.199Z,79.00
2018-07-12T08:24:51.529Z,78.70
2018-07-12T08:27:19.772Z,78.30
2018-07-12T08:29:48.027Z,77.90
2018-07-12T08:32:16.247Z,77.20
2018-07-12T08:34:44.491Z,76.70
2018-07-12T08:37:12.695Z,75.60
2018-07-12T08:39:40.930Z,74.70
2018-07-12T08:42:09.188Z,74.00
2018-07-12T08:44:37.416Z,73.40
2018-07-12T08:47:05.621Z,72.80
2018-07-12T08:49:33.848Z,72.10
2018-07-12T08:52:02.063Z,71.20
2018-07-12T08:54:30.345Z,70.00
2018-07-12T08:56:58.557Z,69.10
2018-07-12T08:59:26.792Z,68.20
2018-07-12T09:01:55.450Z,67.50
2018-07-12T09:04:23.860Z,67.30
2018-07-12T09:06:52.173Z,67.20
2018-07-12T09:09:20.395Z,66.70
2018-07-12T09:11:48.600Z,65.30
2018-07-12T09:14:16.836Z,65.30
2018-07-12T09:16:45.092Z,65.30
2018-07-12T09:19:13.349Z,65.80
2018-07-12T09:21:41.580Z,66.20
2018-07-12T09:24:09.937Z,66.70
2018-07-12T09:26:38.220Z,67.10
2018-07-12T09:29:06.477Z,66.50
2018-07-12T09:31:34.674Z,65.70
2018-07-12T09:34:02.962Z,65.10
2018-07-12T09:36:31.176Z,65.10
2018-07-12T09:38:59.366Z,64.90
2018-07-12T09:41:27.603Z,65.00
2018-07-12T09:43:55.804Z,62.70
2018-07-12T09:48:52.719Z,58.90
2018-07-12T09:51:20.956Z,57.60
2018-07-12T09:53:49.196Z,57.10
2018-07-12T09:56:17.550Z,56.10
2018-07-12T09:58:45.703Z,55.40
2018-07-12T10:01:19.388Z,55.10
2018-07-12T10:03:50.342Z,55.50
2018-07-12T10:06:24.022Z,55.70
2018-07-12T10:08:59.845Z,56.20
2018-07-12T10:11:33.617Z,56.70
2018-07-12T10:14:07.420Z,57.10
2018-07-12T10:16:41.036Z,57.00
2018-07-12T10:19:09.254Z,57.10
2018-07-12T10:21:37.461Z,56.80
2018-07-12T10:24:05.829Z,55.60
2018-07-12T10:26:34.082Z,54.90
2018-07-12T10:29:02.312Z,54.60
2018-07-12T10:31:30.529Z,54.50
2018-07-12T10:33:58.761Z,54.80
2018-07-12T10:36:27.016Z,54.60
2018-07-12T10:38:55.212Z,54.60
2018-07-12T10:41:23.568Z,55.00
2018-07-12T10:43:51.796Z,55.10
2018-07-12T10:46:20.032Z,55.60
2018-07-12T10:48:48.253Z,55.60
2018-07-12T10:51:16.478Z,55.70
2018-07-12T10:53:44.712Z,55.70
2018-07-12T10:56:12.936Z,55.50
2018-07-12T10:58:41.153Z,56.00
2018-07-12T11:01:09.344Z,55.70
2018-07-12T11:06:05.761Z,56.00
2018-07-12T11:08:34.008Z,55.90
2018-07-12T11:11:02.224Z,55.60
2018-07-12T11:13:41.891Z,55.30
2018-07-12T11:16:10.191Z,55.00
2018-07-12T11:18:38.392Z,54.80
2018-07-12T11:21:06.638Z,54.50
2018-07-12T11:23:35.022Z,54.20
2018-07-12T11:26:03.311Z,53.80
2018-07-12T11:28:31.532Z,53.30
2018-07-12T11:30:59.770Z,52.70
2018-07-12T11:33:47.544Z,52.50
2018-07-12T11:36:15.789Z,52.20
2018-07-12T11:38:44.620Z,52.60
2018-07-12T11:41:13.451Z,52.50
2018-07-12T11:43:41.740Z,52.20
2018-07-12T11:46:11.199Z,51.40
2018-07-12T11:48:40.512Z,50.90
2018-07-12T11:51:08.740Z,50.90
2018-07-12T11:53:37.031Z,51.40
2018-07-12T11:56:05.303Z,51.80
2018-07-12T11:58:33.579Z,52.00
2018-07-12T12:01:01.998Z,52.60
2018-07-12T12:03:30.666Z,52.10
2018-07-12T12:05:58.971Z,51.90
2018-07-12T12:08:27.483Z,51.20
2018-07-12T12:10:55.749Z,50.40
2018-07-12T12:13:23.972Z,49.60
2018-07-12T12:15:52.199Z,49.10
2018-07-12T12:18:20.476Z,49.30
2018-07-12T12:20:48.723Z,49.20
2018-07-12T12:23:16.992Z,49.50
2018-07-12T12:25:45.284Z,48.90
2018-07-12T12:28:13.650Z,48.00
2018-07-12T12:30:41.936Z,47.40
2018-07-12T12:33:10.139Z,46.90
2018-07-12T12:35:38.360Z,46.10
2018-07-12T12:38:06.631Z,45.60
2018-07-12T12:43:03.141Z,45.60
2018-07-12T12:45:31.364Z,45.80
2018-07-12T12:47:59.568Z,46.10
2018-07-12T12:50:27.819Z,46.50
2018-07-12T12:52:56.076Z,46.30
2018-07-12T12:55:24.293Z,46.50
2018-07-12T12:57:52.547Z,47.10
2018-07-12T13:00:20.747Z,47.00
2018-07-12T13:02:49.036Z,47.20
2018-07-12T13:05:17.259Z,47.00
2018-07-12T13:07:45.996Z,47.00
2018-07-12T13:10:14.200Z,47.10
2018-07-12T13:12:42.429Z,47.00
2018-07-12T13:15:10.668Z,46.90
2018-07-12T13:17:38.884Z,46.70
2018-07-12T13:20:07.136Z,45.70
2018-07-12T13:22:35.356Z,44.70
2018-07-12T13:25:03.596Z,44.40
2018-07-12T13:27:31.824Z,44.60
2018-07-12T13:30:00.079Z,44.10
2018-07-12T13:32:28.270Z,43.40
2018-07-12T13:34:56.510Z,42.80
2018-07-12T13:37:24.828Z,42.90
2018-07-12T13:39:53.075Z,43.00
2018-07-12T13:42:21.397Z,42.70
2018-07-12T13:44:49.584Z,42.80
2018-07-12T13:47:17.840Z,43.30
2018-07-12T13:49:46.100Z,43.70
2018-07-12T13:52:14.440Z,43.50
2018-07-12T13:54:42.611Z,42.80
2018-07-12T13:57:10.820Z,42.00
2018-07-12T13:59:39.037Z,41.90
2018-07-12T14:02:07.267Z,40.60
2018-07-12T14:04:35.556Z,41.10
2018-07-12T14:07:03.856Z,41.20
2018-07-12T14:09:32.061Z,40.30
2018-07-12T14:12:00.365Z,39.90
2018-07-12T14:14:28.639Z,39.30
2018-07-12T14:16:56.856Z,38.70
2018-07-12T14:19:25.131Z,38.60
2018-07-12T14:21:53.384Z,38.10
2018-07-12T14:24:21.668Z,39.00
2018-07-12T14:26:49.972Z,39.00
2018-07-12T14:29:18.224Z,38.70
2018-07-12T14:31:46.445Z,38.60
2018-07-12T14:34:14.709Z,38.50
2018-07-12T14:36:42.978Z,37.90
2018-07-12T14:39:11.212Z,37.60
2018-07-12T14:41:40.468Z,37.70
2018-07-12T14:44:09.187Z,38.50
2018-07-12T14:46:37.421Z,38.90
2018-07-12T14:49:05.708Z,39.40
2018-07-12T14:51:34.040Z,39.40
2018-07-12T14:54:02.428Z,39.30
2018-07-12T14:56:30.646Z,38.80
2018-07-12T14:58:58.893Z,38.20
2018-07-12T15:01:27.209Z,37.70
2018-07-12T15:03:55.436Z,37.70
2018-07-12T15:06:24.045Z,38.50
2018-07-12T15:08:52.434Z,39.00
2018-07-12T15:11:20.859Z,36.90
2018-07-12T15:13:49.172Z,36.10
2018-07-12T15:16:17.820Z,35.60
2018-07-12T15:18:46.094Z,34.10
2018-07-12T15:21:14.367Z,33.20
2018-07-12T15:23:42.671Z,33.00
2018-07-12T15:26:10.914Z,32.60
2018-07-12T15:28:39.099Z,32.60
2018-07-12T15:31:07.304Z,32.50
2018-07-12T15:33:35.521Z,32.70
2018-07-12T15:36:03.806Z,33.30
2018-07-12T15:38:32.012Z,34.10
2018-07-12T15:41:00.249Z,34.80
2018-07-12T15:43:28.512Z,35.40
2018-07-12T15:45:56.735Z,36.10
2018-07-12T15:48:24.995Z,36.60
2018-07-12T15:50:53.261Z,36.90
2018-07-12T15:53:21.493Z,37.40
2018-07-12T15:55:49.699Z,37.80
2018-07-12T15:58:17.945Z,38.10
2018-07-12T16:00:46.256Z,38.30
2018-07-12T16:03:14.464Z,38.60
2018-07-12T16:05:42.677Z,38.30
2018-07-12T16:08:10.925Z,37.50
2018-07-12T16:10:39.152Z,36.70
2018-07-12T16:13:07.436Z,36.50
2018-07-12T16:15:35.759Z,36.10
2018-07-12T16:18:04.060Z,35.90
2018-07-12T16:23:00.346Z,34.50
2018-07-12T16:25:28.659Z,33.90
2018-07-12T16:27:57.009Z,33.10
2018-07-12T16:30:25.241Z,31.90
2018-07-12T16:32:53.492Z,32.00
2018-07-12T16:35:21.724Z,32.30
2018-07-12T16:37:50.032Z,32.70
2018-07-12T16:40:18.267Z,32.80
2018-07-12T16:42:46.560Z,32.70
2018-07-12T16:45:14.820Z,32.60
2018-07-12T16:47:43.116Z,32.30
2018-07-12T16:50:11.364Z,32.50
2018-07-12T16:52:39.817Z,33.00
2018-07-12T16:55:08.039Z,33.60
2018-07-12T16:57:36.264Z,34.60
2018-07-12T17:00:04.656Z,35.50
2018-07-12T17:02:32.893Z,36.10
2018-07-12T17:05:01.152Z,35.90
2018-07-12T17:07:29.937Z,35.60
2018-07-12T17:10:04.626Z,35.10
2018-07-12T17:12:32.857Z,34.40
2018-07-12T17:15:01.123Z,33.70
2018-07-12T17:17:29.405Z,32.70
2018-07-12T17:19:57.655Z,32.60
2018-07-12T17:22:25.851Z,33.50
2018-07-12T17:24:54.093Z,33.40
2018-07-12T17:27:22.320Z,32.60
2018-07-12T17:29:50.559Z,31.60
2018-07-12T17:32:18.888Z,30.80
2018-07-12T17:34:47.084Z,30.20
2018-07-12T17:37:15.319Z,29.70
2018-07-12T17:39:43.707Z,29.80
2018-07-12T17:42:12.024Z,29.60
2018-07-12T17:44:40.338Z,29.30
2018-07-12T17:47:08.614Z,29.10
2018-07-12T17:49:37.679Z,29.40
2018-07-12T17:52:06.094Z,29.10
2018-07-12T17:54:34.344Z,29.50
2018-07-12T17:57:02.579Z,29.80
2018-07-12T17:59:30.833Z,30.00
2018-07-12T18:01:59.092Z,29.50
2018-07-12T18:04:27.297Z,29.20
2018-07-12T18:06:55.548Z,28.90
2018-07-12T18:09:23.774Z,28.70
2018-07-12T18:11:52.192Z,28.60
2018-07-12T18:14:20.717Z,28.40
2018-07-12T18:16:48.892Z,28.40
2018-07-12T18:19:17.060Z,28.20
2018-07-12T18:21:45.322Z,28.10
2018-07-12T18:24:13.543Z,28.50
2018-07-12T18:26:41.795Z,28.30
2018-07-12T18:29:10.093Z,28.30
2018-07-12T18:31:38.380Z,28.50
2018-07-12T18:34:06.606Z,28.90
2018-07-12T18:36:34.834Z,29.50
2018-07-12T18:39:03.088Z,30.00
2018-07-12T18:41:31.392Z,31.20
2018-07-12T18:44:02.731Z,32.50
2018-07-12T18:46:31.055Z,33.90
2018-07-12T18:48:59.265Z,35.30
2018-07-12T18:51:27.523Z,36.70
2018-07-12T18:53:55.752Z,38.10
2018-07-12T18:56:23.979Z,39.30
2018-07-12T18:58:52.193Z,40.40
2018-07-12T19:01:20.483Z,42.10
2018-07-12T19:03:48.767Z,42.60
2018-07-12T19:06:17.000Z,43.50
2018-07-12T19:08:45.623Z,44.20
2018-07-12T19:11:13.846Z,44.90
2018-07-12T19:13:42.064Z,45.60
2018-07-12T19:16:10.589Z,46.40
2018-07-12T19:18:38.827Z,46.90
2018-07-12T19:21:07.037Z,48.00
2018-07-12T19:23:35.297Z,48.60
2018-07-12T19:26:03.720Z,49.80
2018-07-12T19:28:32.039Z,51.00
2018-07-12T19:31:00.279Z,52.10
2018-07-12T19:33:28.574Z,52.80
2018-07-12T19:35:56.945Z,53.90
2018-07-12T19:38:25.344Z,55.00
2018-07-12T19:40:53.577Z,55.80
2018-07-12T19:43:21.840Z,56.70
2018-07-12T19:45:50.103Z,57.60
2018-07-12T19:48:18.352Z,58.50
2018-07-12T19:50:47.258Z,59.20
2018-07-12T19:53:15.471Z,59.90
2018-07-12T19:55:43.891Z,61.00
2018-07-12T19:58:12.169Z,61.80
2018-07-12T20:00:40.486Z,62.70
2018-07-12T20:03:08.884Z,63.50
2018-07-12T20:05:37.076Z,64.00
2018-07-12T20:08:05.406Z,65.10
2018-07-12T20:10:33.615Z,66.00
2018-07-12T20:13:01.910Z,66.80
2018-07-12T20:15:30.137Z,67.50
2018-07-12T20:17:58.435Z,68.30
2018-07-12T20:20:26.666Z,69.10
2018-07-12T20:22:54.872Z,70.20
2018-07-12T20:25:23.971Z,71.00
2018-07-12T20:27:52.213Z,71.80
2018-07-12T20:30:20.565Z,72.40
2018-07-12T20:32:48.785Z,72.60
2018-07-12T20:35:17.031Z,73.40
2018-07-12T20:37:45.284Z,74.00
2018-07-12T20:40:13.558Z,74.60
2018-07-12T20:42:41.778Z,75.20
2018-07-12T20:45:09.989Z,77.50
2018-07-12T20:47:38.214Z,80.00
2018-07-12T20:50:06.538Z,80.10
2018-07-12T20:52:34.819Z,79.90
2018-07-12T20:55:03.419Z,79.70
2018-07-12T20:57:31.632Z,79.70
2018-07-12T20:59:59.827Z,79.90
2018-07-12T21:02:28.123Z,80.00
2018-07-12T21:04:56.440Z,80.40
2018-07-12T21:07:24.700Z,80.70
2018-07-12T21:09:52.884Z,81.00
2018-07-12T21:12:21.159Z,81.10
2018-07-12T21:14:49.431Z,81.20
2018-07-12T21:17:17.756Z,81.50
2018-07-12T21:19:45.995Z,81.60
2018-07-12T21:22:14.196Z,81.70
2018-07-12T21:24:42.440Z,81.80
2018-07-12T21:27:10.663Z,82.40
2018-07-12T21:29:39.021Z,82.90
2018-07-12T21:32:07.228Z,83.30
2018-07-12T21:34:35.439Z,83.70
2018-07-12T21:37:03.645Z,83.40
2018-07-12T21:39:32.021Z,84.30
2018-07-12T21:42:00.993Z,84.50
2018-07-12T21:44:29.893Z,84.80
2018-07-12T21:46:58.057Z,85.20
2018-07-12T21:49:26.259Z,85.30
2018-07-12T21:51:54.498Z,85.50
2018-07-12T21:54:22.735Z,85.80
2018-07-12T21:56:50.953Z,86.00
2018-07-12T21:59:19.265Z,86.30
2018-07-12T22:01:47.835Z,86.60
2018-07-12T22:04:16.090Z,86.80
2018-07-12T22:07:12.725Z,87.00
2018-07-12T22:09:41.284Z,87.20
2018-07-12T22:12:09.529Z,87.30
2018-07-12T22:14:44.552Z,87.80
2018-07-12T22:17:12.766Z,88.00
2018-07-12T22:19:41.021Z,88.20
2018-07-12T22:22:09.265Z,88.30
2018-07-12T22:24:37.536Z,88.60
2018-07-12T22:27:05.719Z,88.80
2018-07-12T22:29:33.934Z,89.10
2018-07-12T22:32:02.193Z,89.30
2018-07-12T22:34:30.433Z,89.50
2018-07-12T22:36:58.672Z,89.80
2018-07-12T22:39:26.883Z,90.00
2018-07-12T22:41:55.081Z,90.20
2018-07-12T22:44:23.318Z,90.30
2018-07-12T22:46:51.554Z,90.40
2018-07-12T22:49:19.789Z,90.50
2018-07-12T22:51:48.093Z,90.50
2018-07-12T22:54:16.299Z,90.60
2018-07-12T22:56:44.560Z,90.60
2018-07-12T22:59:12.805Z,90.60
2018-07-12T23:01:41.044Z,90.80
2018-07-12T23:04:09.250Z,90.80
2018-07-12T23:06:37.492Z,91.00
2018-07-12T23:09:06.069Z,91.10
2018-07-12T23:11:34.304Z,91.20
2018-07-12T23:14:02.607Z,91.20
2018-07-12T23:16:30.873Z,91.20
2018-07-12T23:18:59.935Z,91.20
2018-07-12T23:21:28.155Z,91.10
2018-07-12T23:23:56.356Z,91.40
2018-07-12T23:26:24.549Z,91.60
2018-07-12T23:28:52.758Z,91.70
2018-07-12T23:31:20.957Z,91.70
2018-07-12T23:33:49.179Z,91.80
2018-07-12T23:36:17.388Z,92.20
2018-07-12T23:38:45.663Z,92.00
2018-07-12T23:41:13.901Z,92.00
2018-07-12T23:43:42.104Z,92.20
2018-07-12T23:46:10.349Z,92.30
2018-07-12T23:48:38.576Z,92.40
2018-07-12T23:51:06.849Z,92.50
2018-07-12T23:53:35.065Z,92.50
2018-07-12T23:56:03.279Z,92.50
2018-07-12T23:58:31.641Z,92.50
